Anshun, China
Current Conditions -  °F | °C
As of 11:00 AM on Sunday 26 Oct 2014 (Local Time) from ZUGY Reporting Station
Broken Clouds Broken Clouds  
Wind Chill: 70°   Ceiling: 2100
Heat Index: 70°   Visibility: 6mi
Dew Point: 63°   Wind: 4mph
Humidity: 78%   Direction: 260°W
Pressure: 30.21"   Gusts: NA
Location:  26.25°N, 105.93°E
Report Text: ZUGY 260300Z 26002MPS 210V020 9999 BKN021 21/17 Q1023 NOSIG
Loading
Personal Weather Stations






























Interactive Weather Map
Tropical Storm Tracking
New forecast layout! Learn more

10-Day Weather Forecast

Advertisements
Track Severe Weather on mobile